L'Hermione — FIQE — position and weather

sailwx.info

Track history (hours):
 
Tides and Currents Weather Stations Pressure Air Temp Water Temp Dewpoint Dewpoint Depression Visibility Wind Speed Wind Dir Waves Ship Positions

L'Hermione (France)

Ship's website: http://www.seaformation.com/#!follow-hermione/c6gz

Last reported at 2016-Jul-23 14:33 UTC. Time now 2017-Nov-18 14:12 UTC.
Position N 45°60' W 001°10'.
Warning: this ship's position is years out of date!

Length 66 m; draft 4.8 m.

Type: Sailing vessel. MMSI: 228052600.

Date/timePositionNaut miles runAvg speedWind from/ knotsBaromVisibWave heightAir tempDewpointWater temp
2016-Jul-23 14:33N 45°60' W 001°10'1 0.7
2016-Jul-23 13:33N 45°60' W 001°11'0 0.0
2016-Jul-23 12:33N 45°60' W 001°11'0 0.1
2016-Jul-23 11:33N 45°60' W 001°11'0 0.0
2016-Jul-23 07:33N 45°60' W 001°11'0 0.0
2016-Jul-23 06:30N 45°60' W 001°11'0 0.0
2016-Jul-23 04:33N 45°60' W 001°11'0 0.0
2016-Jul-23 03:33N 45°60' W 001°11'0 0.0
2016-Jul-23 02:33N 45°60' W 001°11'0 0.0
2016-Jul-23 01:33N 45°60' W 001°11'0 0.0
2016-Jul-23 00:33N 45°60' W 001°11'0 0.0
2016-Jul-22 23:33N 45°60' W 001°11'0 0.0
2016-Jul-22 22:30N 45°60' W 001°11'0 0.0
2016-Jul-22 21:33N 45°60' W 001°11'0 0.0
2016-Jul-22 20:33N 45°60' W 001°11'0 0.0
2016-Jul-22 19:33N 45°60' W 001°11'0 0.0
2016-Jul-22 18:30N 45°60' W 001°11'0 0.0
2016-Jul-22 17:33N 45°60' W 001°11'0 0.0
2016-Jul-22 16:33N 45°60' W 001°11'0 0.0
2016-Jul-22 15:33N 45°60' W 001°11'0 0.0
2016-Jul-22 14:33N 45°60' W 001°11'0 0.0
2016-Jul-22 13:27N 45°60' W 001°11'0 0.0
2016-Jul-22 12:30N 45°60' W 001°11'0 0.0
2016-Jul-22 11:33N 45°60' W 001°11'0 0.1
2016-Jul-22 10:33N 45°60' W 001°11'0 0.0
2016-Jul-22 09:30N 45°60' W 001°11'0 0.0
2016-Jul-22 08:32N 45°60' W 001°11'0 0.0
2016-Jul-22 07:26N 45°60' W 001°11'0 0.0
2016-Jul-22 05:33N 45°60' W 001°11'0 0.0
2016-Jul-22 04:33N 45°60' W 001°11'0 0.0
2016-Jul-22 03:33N 45°60' W 001°11'0 0.0
2016-Jul-22 02:33N 45°60' W 001°11'0 0.0
2016-Jul-22 01:33N 45°60' W 001°11'0 0.0
2016-Jul-22 00:33N 45°60' W 001°11'0 0.0
2016-Jul-21 23:33N 45°60' W 001°11'0 0.0
2016-Jul-21 22:33N 45°60' W 001°11'0 0.0
2016-Jul-21 21:33N 45°60' W 001°11'0 0.0
2016-Jul-21 20:33N 45°60' W 001°11'0 0.0
2016-Jul-21 19:32N 45°60' W 001°11'0 0.0
2016-Jul-21 18:33N 45°60' W 001°11'0 0.1
2016-Jul-21 17:33N 45°60' W 001°11'0 0.0
2016-Jul-21 16:33N 45°60' W 001°11'0 0.0
2016-Jul-21 15:32N 45°60' W 001°11'5 4.8
2016-Jul-21 14:33N 46°03' W 001°16'9 9.1
2016-Jul-21 13:33N 46°07' W 001°27'5 4.6
2016-Jul-21 12:33N 46°06' W 001°21'2 1.7
2016-Jul-21 11:33N 46°06' W 001°18'4 4.5
2016-Jul-21 10:33N 46°07' W 001°25'0 0.2
2016-Jul-21 09:33N 46°07' W 001°25'0 0.4
2016-Jul-21 08:33N 46°08' W 001°25'11 3.7
2016-Jul-21 05:33N 46°12' W 001°40'5 5.4
2016-Jul-21 04:33N 46°15' W 001°46'4 3.7
2016-Jul-21 03:33N 46°18' W 001°50'5 5.0
2016-Jul-21 02:33N 46°21' W 001°56'6 6.0
2016-Jul-21 01:34N 46°25' W 002°02'6 6.3
2016-Jul-21 00:33N 46°29' W 002°09'35 5.5
2016-Jul-20 18:15N 46°52' W 002°47'5 4.3
2016-Jul-20 17:09N 46°56' W 002°51'3 4.3
2016-Jul-20 16:33N 46°58' W 002°54'4 4.5
2016-Jul-20 15:33N 47°01' W 002°58'5 5.4
2016-Jul-20 14:33N 47°05' W 003°03'4 4.4
2016-Jul-20 13:33N 47°08' W 003°08'4 4.5
2016-Jul-20 12:33N 47°11' W 003°13'5 5.0
2016-Jul-20 11:33N 47°14' W 003°18'4 4.4
2016-Jul-20 10:33N 47°17' W 003°23'4 4.0
2016-Jul-20 09:33N 47°20' W 003°27'4 4.0
2016-Jul-20 08:31N 47°23' W 003°32'4 4.0
2016-Jul-20 07:33N 47°26' W 003°36'4 4.1
2016-Jul-20 06:34N 47°28' W 003°41'6 5.9
2016-Jul-20 05:33N 47°32' W 003°48'5 4.4
2016-Jul-20 04:30N 47°34' W 003°54'5 4.9
2016-Jul-20 03:23N 47°36' W 004°01'5 4.4
2016-Jul-20 02:13N 47°39' W 004°08'4 3.8
2016-Jul-20 01:16N 47°40' W 004°13'4 4.4
2016-Jul-20 00:22N 47°42' W 004°18'13 6.9
2016-Jul-19 22:33N 47°48' W 004°35'6 6.1
2016-Jul-19 21:33N 47°53' W 004°39'6 6.0
2016-Jul-19 20:33N 47°59' W 004°40'4 4.3
2016-Jul-19 19:33N 48°02' W 004°45'6 5.7
2016-Jul-19 18:33N 48°06' W 004°38'7 6.7
2016-Jul-19 17:33N 48°06' W 004°28'6 6.0
2016-Jul-19 16:33N 48°06' W 004°19'0 0.4
2016-Jul-19 15:33N 48°06' W 004°19'0 0.0
2016-Jul-19 14:33N 48°06' W 004°19'0 0.0
2016-Jul-19 13:33N 48°06' W 004°19'0 0.0
2016-Jul-19 12:33N 48°06' W 004°19'0 0.2
2016-Jul-19 11:33N 48°06' W 004°19'6 6.2
2016-Jul-19 10:33N 48°08' W 004°28'7 6.9
2016-Jul-19 09:33N 48°12' W 004°36'5 5.4
2016-Jul-19 08:33N 48°17' W 004°38'6 6.1
2016-Jul-19 07:33N 48°21' W 004°32'2 1.9
2016-Jul-19 06:31N 48°23' W 004°30'0 0.0
2016-Jul-17 11:28N 48°23' W 004°30'0 0.0
2016-Jul-17 10:31N 48°23' W 004°30'0 0.0
2016-Jul-17 09:31N 48°23' W 004°30'0 0.0
2016-Jul-17 08:31N 48°23' W 004°30'0 0.0
2016-Jul-17 07:31N 48°23' W 004°30'0 0.0
2016-Jul-17 06:31N 48°23' W 004°30'0 0.0
2016-Jul-17 04:31N 48°23' W 004°30'0 0.0
2016-Jul-17 03:31N 48°23' W 004°30'0 0.0
2016-Jul-17 02:31N 48°23' W 004°30'0 0.0
2016-Jul-17 01:31N 48°23' W 004°30'0 0.0
2016-Jul-17 00:31N 48°23' W 004°30'0 0.0
2016-Jul-16 23:31N 48°23' W 004°30'0 0.0
2016-Jul-16 22:28N 48°23' W 004°30'0 0.0
2016-Jul-16 21:31N 48°23' W 004°30'0 0.0
2016-Jul-16 20:31N 48°23' W 004°30'0 0.0
2016-Jul-16 19:31N 48°23' W 004°30'0 0.0
2016-Jul-16 18:31N 48°23' W 004°30'0 0.0
2016-Jul-16 17:31N 48°23' W 004°30'0 0.0
2016-Jul-16 16:31N 48°23' W 004°30'0 0.0
2016-Jul-16 15:31N 48°23' W 004°30'0 0.0
2016-Jul-16 14:31N 48°23' W 004°30'0 0.0
2016-Jul-16 13:31N 48°23' W 004°30'0 0.0
2016-Jul-16 12:31N 48°23' W 004°30'0 0.0
2016-Jul-16 11:31N 48°23' W 004°30'0 0.0
2016-Jul-16 10:33N 48°23' W 004°30'0 0.0
2016-Jul-16 09:33N 48°23' W 004°30'0 0.0
2016-Jul-16 08:33N 48°23' W 004°30'0 0.0
2016-Jul-16 07:33N 48°23' W 004°30'0 0.0
2016-Jul-16 06:33N 48°23' W 004°30'0 0.0
2016-Jul-16 04:33N 48°23' W 004°30'0 0.0
2016-Jul-16 03:33N 48°23' W 004°30'0 0.0
2016-Jul-16 02:33N 48°23' W 004°30'0 0.0
2016-Jul-16 01:33N 48°23' W 004°30'0 0.0
2016-Jul-16 00:33N 48°23' W 004°30'0 0.0
2016-Jul-15 23:33N 48°23' W 004°30'0 0.0
2016-Jul-15 22:33N 48°23' W 004°30'0 0.0
2016-Jul-15 21:33N 48°23' W 004°30'0 0.0
2016-Jul-15 20:33N 48°23' W 004°30'0 0.0
2016-Jul-15 19:33N 48°23' W 004°30'0 0.0
2016-Jul-15 18:33N 48°23' W 004°30'0 0.0
2016-Jul-15 17:33N 48°23' W 004°30'0 0.0
2016-Jul-15 16:33N 48°23' W 004°30'0 0.0
2016-Jul-15 15:33N 48°23' W 004°30'2 1.9
2016-Jul-15 14:33N 48°21' W 004°30'1 0.8
2016-Jul-15 13:33N 48°22' W 004°29'1 1.3
2016-Jul-15 12:32N 48°23' W 004°30'  
Track history (hours):
 
Tides and Currents Weather Stations Pressure Air Temp Water Temp Dewpoint Dewpoint Depression Visibility Wind Speed Wind Dir Waves Ship Positions

L'Hermione (France)

Ship's website: http://www.seaformation.com/#!follow-hermione/c6gz

Last reported at 2016-Jul-23 14:33 UTC. Time now 2017-Nov-18 14:12 UTC.
Position N 45°60' W 001°10'.
Warning: this ship's position is years out of date!

Length 66 m; draft 4.8 m.

Type: Sailing vessel. MMSI: 228052600.

Date/timePositionNaut miles runAvg speedWind from/ knotsBaromVisibWave heightAir tempDewpointWater temp
2016-Jul-23 14:33N 45°60' W 001°10'1 0.7
2016-Jul-23 13:33N 45°60' W 001°11'0 0.0
2016-Jul-23 12:33N 45°60' W 001°11'0 0.1
2016-Jul-23 11:33N 45°60' W 001°11'0 0.0
2016-Jul-23 07:33N 45°60' W 001°11'0 0.0
2016-Jul-23 06:30N 45°60' W 001°11'0 0.0
2016-Jul-23 04:33N 45°60' W 001°11'0 0.0
2016-Jul-23 03:33N 45°60' W 001°11'0 0.0
2016-Jul-23 02:33N 45°60' W 001°11'0 0.0
2016-Jul-23 01:33N 45°60' W 001°11'0 0.0
2016-Jul-23 00:33N 45°60' W 001°11'0 0.0
2016-Jul-22 23:33N 45°60' W 001°11'0 0.0
2016-Jul-22 22:30N 45°60' W 001°11'0 0.0
2016-Jul-22 21:33N 45°60' W 001°11'0 0.0
2016-Jul-22 20:33N 45°60' W 001°11'0 0.0
2016-Jul-22 19:33N 45°60' W 001°11'0 0.0
2016-Jul-22 18:30N 45°60' W 001°11'0 0.0
2016-Jul-22 17:33N 45°60' W 001°11'0 0.0
2016-Jul-22 16:33N 45°60' W 001°11'0 0.0
2016-Jul-22 15:33N 45°60' W 001°11'0 0.0
2016-Jul-22 14:33N 45°60' W 001°11'0 0.0
2016-Jul-22 13:27N 45°60' W 001°11'0 0.0
2016-Jul-22 12:30N 45°60' W 001°11'0 0.0
2016-Jul-22 11:33N 45°60' W 001°11'0 0.1
2016-Jul-22 10:33N 45°60' W 001°11'0 0.0
2016-Jul-22 09:30N 45°60' W 001°11'0 0.0
2016-Jul-22 08:32N 45°60' W 001°11'0 0.0
2016-Jul-22 07:26N 45°60' W 001°11'0 0.0
2016-Jul-22 05:33N 45°60' W 001°11'0 0.0
2016-Jul-22 04:33N 45°60' W 001°11'0 0.0
2016-Jul-22 03:33N 45°60' W 001°11'0 0.0
2016-Jul-22 02:33N 45°60' W 001°11'0 0.0
2016-Jul-22 01:33N 45°60' W 001°11'0 0.0
2016-Jul-22 00:33N 45°60' W 001°11'0 0.0
2016-Jul-21 23:33N 45°60' W 001°11'0 0.0
2016-Jul-21 22:33N 45°60' W 001°11'0 0.0
2016-Jul-21 21:33N 45°60' W 001°11'0 0.0
2016-Jul-21 20:33N 45°60' W 001°11'0 0.0
2016-Jul-21 19:32N 45°60' W 001°11'0 0.0
2016-Jul-21 18:33N 45°60' W 001°11'0 0.1
2016-Jul-21 17:33N 45°60' W 001°11'0 0.0
2016-Jul-21 16:33N 45°60' W 001°11'0 0.0
2016-Jul-21 15:32N 45°60' W 001°11'5 4.8
2016-Jul-21 14:33N 46°03' W 001°16'9 9.1
2016-Jul-21 13:33N 46°07' W 001°27'5 4.6
2016-Jul-21 12:33N 46°06' W 001°21'2 1.7
2016-Jul-21 11:33N 46°06' W 001°18'4 4.5
2016-Jul-21 10:33N 46°07' W 001°25'0 0.2
2016-Jul-21 09:33N 46°07' W 001°25'0 0.4
2016-Jul-21 08:33N 46°08' W 001°25'11 3.7
2016-Jul-21 05:33N 46°12' W 001°40'5 5.4
2016-Jul-21 04:33N 46°15' W 001°46'4 3.7
2016-Jul-21 03:33N 46°18' W 001°50'5 5.0
2016-Jul-21 02:33N 46°21' W 001°56'6 6.0
2016-Jul-21 01:34N 46°25' W 002°02'6 6.3
2016-Jul-21 00:33N 46°29' W 002°09'35 5.5
2016-Jul-20 18:15N 46°52' W 002°47'5 4.3
2016-Jul-20 17:09N 46°56' W 002°51'3 4.3
2016-Jul-20 16:33N 46°58' W 002°54'4 4.5
2016-Jul-20 15:33N 47°01' W 002°58'5 5.4
2016-Jul-20 14:33N 47°05' W 003°03'4 4.4
2016-Jul-20 13:33N 47°08' W 003°08'4 4.5
2016-Jul-20 12:33N 47°11' W 003°13'5 5.0
2016-Jul-20 11:33N 47°14' W 003°18'4 4.4
2016-Jul-20 10:33N 47°17' W 003°23'4 4.0
2016-Jul-20 09:33N 47°20' W 003°27'4 4.0
2016-Jul-20 08:31N 47°23' W 003°32'4 4.0
2016-Jul-20 07:33N 47°26' W 003°36'4 4.1
2016-Jul-20 06:34N 47°28' W 003°41'6 5.9
2016-Jul-20 05:33N 47°32' W 003°48'5 4.4
2016-Jul-20 04:30N 47°34' W 003°54'5 4.9
2016-Jul-20 03:23N 47°36' W 004°01'5 4.4
2016-Jul-20 02:13N 47°39' W 004°08'4 3.8
2016-Jul-20 01:16N 47°40' W 004°13'4 4.4
2016-Jul-20 00:22N 47°42' W 004°18'13 6.9
2016-Jul-19 22:33N 47°48' W 004°35'6 6.1
2016-Jul-19 21:33N 47°53' W 004°39'6 6.0
2016-Jul-19 20:33N 47°59' W 004°40'4 4.3
2016-Jul-19 19:33N 48°02' W 004°45'6 5.7
2016-Jul-19 18:33N 48°06' W 004°38'7 6.7
2016-Jul-19 17:33N 48°06' W 004°28'6 6.0
2016-Jul-19 16:33N 48°06' W 004°19'0 0.4
2016-Jul-19 15:33N 48°06' W 004°19'0 0.0
2016-Jul-19 14:33N 48°06' W 004°19'0 0.0
2016-Jul-19 13:33N 48°06' W 004°19'0 0.0
2016-Jul-19 12:33N 48°06' W 004°19'0 0.2
2016-Jul-19 11:33N 48°06' W 004°19'6 6.2
2016-Jul-19 10:33N 48°08' W 004°28'7 6.9
2016-Jul-19 09:33N 48°12' W 004°36'5 5.4
2016-Jul-19 08:33N 48°17' W 004°38'6 6.1
2016-Jul-19 07:33N 48°21' W 004°32'2 1.9
2016-Jul-19 06:31N 48°23' W 004°30'0 0.0
2016-Jul-17 11:28N 48°23' W 004°30'0 0.0
2016-Jul-17 10:31N 48°23' W 004°30'0 0.0
2016-Jul-17 09:31N 48°23' W 004°30'0 0.0
2016-Jul-17 08:31N 48°23' W 004°30'0 0.0
2016-Jul-17 07:31N 48°23' W 004°30'0 0.0
2016-Jul-17 06:31N 48°23' W 004°30'0 0.0
2016-Jul-17 04:31N 48°23' W 004°30'0 0.0
2016-Jul-17 03:31N 48°23' W 004°30'0 0.0
2016-Jul-17 02:31N 48°23' W 004°30'0 0.0
2016-Jul-17 01:31N 48°23' W 004°30'0 0.0
2016-Jul-17 00:31N 48°23' W 004°30'0 0.0
2016-Jul-16 23:31N 48°23' W 004°30'0 0.0
2016-Jul-16 22:28N 48°23' W 004°30'0 0.0
2016-Jul-16 21:31N 48°23' W 004°30'0 0.0
2016-Jul-16 20:31N 48°23' W 004°30'0 0.0
2016-Jul-16 19:31N 48°23' W 004°30'0 0.0
2016-Jul-16 18:31N 48°23' W 004°30'0 0.0
2016-Jul-16 17:31N 48°23' W 004°30'0 0.0
2016-Jul-16 16:31N 48°23' W 004°30'0 0.0
2016-Jul-16 15:31N 48°23' W 004°30'0 0.0
2016-Jul-16 14:31N 48°23' W 004°30'0 0.0
2016-Jul-16 13:31N 48°23' W 004°30'0 0.0
2016-Jul-16 12:31N 48°23' W 004°30'0 0.0
2016-Jul-16 11:31N 48°23' W 004°30'0 0.0
2016-Jul-16 10:33N 48°23' W 004°30'0 0.0
2016-Jul-16 09:33N 48°23' W 004°30'0 0.0
2016-Jul-16 08:33N 48°23' W 004°30'0 0.0
2016-Jul-16 07:33N 48°23' W 004°30'0 0.0
2016-Jul-16 06:33N 48°23' W 004°30'0 0.0
2016-Jul-16 04:33N 48°23' W 004°30'0 0.0
2016-Jul-16 03:33N 48°23' W 004°30'0 0.0
2016-Jul-16 02:33N 48°23' W 004°30'0 0.0
2016-Jul-16 01:33N 48°23' W 004°30'0 0.0
2016-Jul-16 00:33N 48°23' W 004°30'0 0.0
2016-Jul-15 23:33N 48°23' W 004°30'0 0.0
2016-Jul-15 22:33N 48°23' W 004°30'0 0.0
2016-Jul-15 21:33N 48°23' W 004°30'0 0.0
2016-Jul-15 20:33N 48°23' W 004°30'0 0.0
2016-Jul-15 19:33N 48°23' W 004°30'0 0.0
2016-Jul-15 18:33N 48°23' W 004°30'0 0.0
2016-Jul-15 17:33N 48°23' W 004°30'0 0.0
2016-Jul-15 16:33N 48°23' W 004°30'0 0.0
2016-Jul-15 15:33N 48°23' W 004°30'2 1.9
2016-Jul-15 14:33N 48°21' W 004°30'1 0.8
2016-Jul-15 13:33N 48°22' W 004°29'1 1.3
2016-Jul-15 12:32N 48°23' W 004°30'  

Dump ship's entire track history